Skip Navigation Links Skip Navigation Links

Current Weather

Reid-Hillview Of Santa Clara County, San Jose, Calif.

For information only: do not use for flight planning or navigation.
Latest weather
Observation time Thursday, December 3, 2020 9:50 PM PST
Local time Friday, December 4, 2020 12:29 AM PST
Flight conditions Visual Meteorological Conditions
Winds
Wind direction variable
Wind speed 3 mph
Visibility 10 mi.
Sky condition
Ceiling 15,000 ft. broken clouds
Cloud layer broken clouds 15,000 ft.
Temperature 48°F
Dewpoint 39°F
Altimeter 30.33 in.Hg
Derived measurements
Relative humidity 71%
Wind chill 47°F
Density altitude -934 ft.
Remarks
Last observation of the day.
METAR KRHV 040550Z VRB03KT 10SM BKN150 09/04 A3033 RMK LAST

Settings

Location code

InnerDrive.Weather 4.0.6770.0 Release CLR 4.0.30319.42000
Copyright ©2018 Inner Drive Technology. All rights reserved. Portions Copyright ©1986-2018 David Braverman.

Find weather

Site navigation


Skip Navigation Links

Place info

Page info

PayPal - The safer, easier way to pay online!

Return home.

Copyright ©2020 Inner Drive Technology. Purveyors of fine, hand-crafted computer software. Page printed 2020-12-04T08:29:41 UTC.